This is the latest recevied weather packets stored in our database for station/object DH0GMA. If no packets are shown the sender has not sent any weather packets the latest 10 day(s).
| Time | Temp. | Humidity | Pressure | Rain* | Wind** | Luminosity | Snow |
|---|---|---|---|---|---|---|---|
| 1777622556 | 11.67° C | 45% | 1027.5 hPa | 0 mm | - | - | - |
| 1777621956 | 11.11° C | 47% | 1027.6 hPa | 0 mm | - | - | - |
| 1777621356 | 11.11° C | 47% | 1027.5 hPa | 0 mm | - | - | - |
| 1777620756 | 10.56° C | 48% | 1027.5 hPa | 0 mm | - | - | - |
| 1777620156 | 10° C | 49% | 1027.6 hPa | 0 mm | - | - | - |
| 1777619555 | 9.44° C | 49% | 1027.7 hPa | 0 mm | - | - | - |
| 1777618955 | 9.44° C | 50% | 1027.7 hPa | 0 mm | - | - | - |
| 1777618355 | 8.89° C | 52% | 1027.5 hPa | 0 mm | - | - | - |
| 1777617755 | 8.33° C | 52% | 1027.4 hPa | 0 mm | - | - | - |
| 1777617156 | 8.33° C | 52% | 1027.3 hPa | 0 mm | - | - | - |
| 1777616556 | 7.78° C | 58% | 1027.3 hPa | 0 mm | - | - | - |
| 1777615956 | 7.22° C | 58% | 1027.3 hPa | 0 mm | - | - | - |
| 1777615356 | 6.67° C | 60% | 1027.3 hPa | 0 mm | - | - | - |
| 1777614756 | 6.11° C | 61% | 1027.2 hPa | 0 mm | - | - | - |
| 1777614156 | 5.56° C | 61% | 1027 hPa | 0 mm | - | - | - |
| 1777613556 | 5.56° C | 62% | 1027 hPa | 0 mm | - | - | - |
| 1777612956 | 5° C | 63% | 1026.9 hPa | 0 mm | - | - | - |
| 1777612355 | 4.44° C | 65% | 1026.9 hPa | 0 mm | - | - | - |
| 1777611755 | 3.33° C | 69% | 1026.8 hPa | 0 mm | - | - | - |
| 1777611155 | 2.22° C | 73% | 1026.8 hPa | 0 mm | - | - | - |
| 1777610555 | 1.67° C | 72% | 1026.7 hPa | 0 mm | - | - | - |
| 1777609955 | 1.67° C | 72% | 1026.5 hPa | 0 mm | - | - | - |
| 1777609355 | 1.67° C | 71% | 1026.5 hPa | 0 mm | - | - | - |
| 1777608755 | 2.22° C | 70% | 1026.4 hPa | 0 mm | - | - | - |
| 1777608156 | 2.22° C | 69% | 1026.4 hPa | 0 mm | - | - | - |
* Rain latest hour (hover to see other rain measurements)
** Current wind speed in m/s (hover to see current wind gust speed)